sensor_id;sensor_type;location;lat;lon;timestamp;pressure;altitude;pressure_sealevel;temperature;humidity
39141;BME280;24875;48.436;10.298;2022-08-25T00:01:53;96412.34;;;17.77;100.00
39141;BME280;24875;48.436;10.298;2022-08-25T00:04:22;96411.72;;;17.75;100.00
39141;BME280;24875;48.436;10.298;2022-08-25T00:06:49;96410.38;;;17.66;100.00
39141;BME280;24875;48.436;10.298;2022-08-25T00:09:19;96403.72;;;17.75;100.00
39141;BME280;24875;48.436;10.298;2022-08-25T00:11:46;96394.94;;;17.74;100.00
39141;BME280;24875;48.436;10.298;2022-08-25T00:14:17;96403.72;;;17.75;100.00
39141;BME280;24875;48.436;10.298;2022-08-25T00:16:43;96404.59;;;17.69;100.00
39141;BME280;24875;48.436;10.298;2022-08-25T00:19:13;96407.38;;;17.80;100.00
39141;BME280;24875;48.436;10.298;2022-08-25T00:21:41;96408.22;;;17.81;100.00
39141;BME280;24875;48.436;10.298;2022-08-25T00:24:09;96409.91;;;17.69;100.00
39141;BME280;24875;48.436;10.298;2022-08-25T00:26:39;96410.25;;;17.79;100.00
39141;BME280;24875;48.436;10.298;2022-08-25T00:29:06;96410.00;;;17.56;100.00
39141;BME280;24875;48.436;10.298;2022-08-25T00:31:33;96415.16;;;17.51;100.00
39141;BME280;24875;48.436;10.298;2022-08-25T00:34:00;96412.28;;;17.59;100.00
39141;BME280;24875;48.436;10.298;2022-08-25T00:36:27;96410.53;;;17.40;100.00
39141;BME280;24875;48.436;10.298;2022-08-25T00:38:55;96413.75;;;17.49;100.00
39141;BME280;24875;48.436;10.298;2022-08-25T00:41:23;96405.13;;;17.53;100.00
39141;BME280;24875;48.436;10.298;2022-08-25T00:43:51;96404.16;;;17.48;100.00
39141;BME280;24875;48.436;10.298;2022-08-25T00:46:20;96403.66;;;17.57;100.00
39141;BME280;24875;48.436;10.298;2022-08-25T00:48:50;96399.78;;;17.53;100.00
39141;BME280;24875;48.436;10.298;2022-08-25T00:51:22;96396.47;;;17.58;100.00
39141;BME280;24875;48.436;10.298;2022-08-25T00:53:51;96397.53;;;17.57;100.00
39141;BME280;24875;48.436;10.298;2022-08-25T00:56:19;96397.03;;;17.66;100.00
39141;BME280;24875;48.436;10.298;2022-08-25T00:58:46;96393.69;;;17.46;100.00
39141;BME280;24875;48.436;10.298;2022-08-25T01:01:12;96390.47;;;17.38;100.00
39141;BME280;24875;48.436;10.298;2022-08-25T01:03:39;96401.66;;;17.46;100.00
39141;BME280;24875;48.436;10.298;2022-08-25T01:06:06;96389.13;;;17.53;100.00
39141;BME280;24875;48.436;10.298;2022-08-25T01:08:34;96389.13;;;17.53;100.00
39141;BME280;24875;48.436;10.298;2022-08-25T01:11:04;96383.31;;;17.63;100.00
39141;BME280;24875;48.436;10.298;2022-08-25T01:13:34;96388.88;;;17.61;100.00
39141;BME280;24875;48.436;10.298;2022-08-25T01:16:02;96386.88;;;17.57;100.00
39141;BME280;24875;48.436;10.298;2022-08-25T01:18:41;96394.09;;;17.74;100.00
39141;BME280;24875;48.436;10.298;2022-08-25T01:21:09;96383.31;;;17.63;100.00
39141;BME280;24875;48.436;10.298;2022-08-25T01:23:35;96379.72;;;17.51;100.00
39141;BME280;24875;48.436;10.298;2022-08-25T01:26:08;96380.28;;;17.59;100.00
39141;BME280;24875;48.436;10.298;2022-08-25T01:28:36;96371.16;;;17.42;100.00
39141;BME280;24875;48.436;10.298;2022-08-25T01:31:23;96373.94;;;17.29;100.00
39141;BME280;24875;48.436;10.298;2022-08-25T01:33:50;96370.59;;;17.40;100.00
39141;BME280;24875;48.436;10.298;2022-08-25T01:36:18;96374.28;;;17.39;100.00
39141;BME280;24875;48.436;10.298;2022-08-25T01:38:44;96378.34;;;17.42;100.00
39141;BME280;24875;48.436;10.298;2022-08-25T01:41:11;96379.00;;;17.37;100.00
39141;BME280;24875;48.436;10.298;2022-08-25T01:43:37;96368.91;;;17.46;100.00
39141;BME280;24875;48.436;10.298;2022-08-25T01:46:04;96379.72;;;17.51;100.00
39141;BME280;24875;48.436;10.298;2022-08-25T01:48:30;96377.88;;;17.51;100.00
39141;BME280;24875;48.436;10.298;2022-08-25T01:50:57;96362.09;;;17.50;100.00
39141;BME280;24875;48.436;10.298;2022-08-25T01:53:27;96373.53;;;17.57;100.00
39141;BME280;24875;48.436;10.298;2022-08-25T01:55:54;96369.13;;;17.44;100.00
39141;BME280;24875;48.436;10.298;2022-08-25T01:58:28;96369.13;;;17.44;100.00
39141;BME280;24875;48.436;10.298;2022-08-25T02:00:57;96371.06;;;17.55;100.00
39141;BME280;24875;48.436;10.298;2022-08-25T02:03:26;96366.78;;;17.54;100.00
39141;BME280;24875;48.436;10.298;2022-08-25T02:05:54;96366.00;;;17.47;100.00
39141;BME280;24875;48.436;10.298;2022-08-25T02:08:21;96362.59;;;17.40;100.00
39141;BME280;24875;48.436;10.298;2022-08-25T02:10:50;96366.09;;;17.34;100.00
39141;BME280;24875;48.436;10.298;2022-08-25T02:13:16;96361.22;;;17.31;100.00
39141;BME280;24875;48.436;10.298;2022-08-25T02:15:47;96370.75;;;17.45;100.00
39141;BME280;24875;48.436;10.298;2022-08-25T02:18:14;96363.09;;;17.24;100.00
39141;BME280;24875;48.436;10.298;2022-08-25T02:20:41;96358.19;;;17.21;100.00
39141;BME280;24875;48.436;10.298;2022-08-25T02:23:08;96358.41;;;17.20;100.00
39141;BME280;24875;48.436;10.298;2022-08-25T02:25:36;96351.66;;;17.17;100.00
39141;BME280;24875;48.436;10.298;2022-08-25T02:28:04;96347.31;;;17.23;100.00
39141;BME280;24875;48.436;10.298;2022-08-25T02:30:33;96342.28;;;17.08;100.00
39141;BME280;24875;48.436;10.298;2022-08-25T02:32:59;96349.25;;;17.09;100.00
39141;BME280;24875;48.436;10.298;2022-08-25T02:35:26;96347.56;;;17.15;100.00
39141;BME280;24875;48.436;10.298;2022-08-25T02:37:53;96342.59;;;16.94;100.00
39141;BME280;24875;48.436;10.298;2022-08-25T02:40:20;96349.38;;;16.84;100.00
39141;BME280;24875;48.436;10.298;2022-08-25T02:42:48;96351.00;;;16.85;100.00
39141;BME280;24875;48.436;10.298;2022-08-25T02:45:17;96354.06;;;16.88;100.00
39141;BME280;24875;48.436;10.298;2022-08-25T02:47:44;96356.34;;;16.85;100.00
39141;BME280;24875;48.436;10.298;2022-08-25T02:50:11;96352.19;;;16.95;100.00
39141;BME280;24875;48.436;10.298;2022-08-25T02:52:38;96355.09;;;16.87;100.00
39141;BME280;24875;48.436;10.298;2022-08-25T02:55:08;96343.59;;;16.93;100.00
39141;BME280;24875;48.436;10.298;2022-08-25T02:57:37;96343.81;;;16.92;100.00
39141;BME280;24875;48.436;10.298;2022-08-25T03:00:04;96352.13;;;17.02;100.00
39141;BME280;24875;48.436;10.298;2022-08-25T03:02:32;96341.53;;;16.95;100.00
39141;BME280;24875;48.436;10.298;2022-08-25T03:04:59;96337.44;;;16.93;100.00
39141;BME280;24875;48.436;10.298;2022-08-25T03:07:25;96342.59;;;16.88;100.00
39141;BME280;24875;48.436;10.298;2022-08-25T03:09:52;96339.38;;;16.79;100.00
39141;BME280;24875;48.436;10.298;2022-08-25T03:12:18;96332.56;;;16.90;100.00
39141;BME280;24875;48.436;10.298;2022-08-25T03:14:46;96330.06;;;16.95;100.00
39141;BME280;24875;48.436;10.298;2022-08-25T03:17:13;96330.69;;;16.90;100.00
39141;BME280;24875;48.436;10.298;2022-08-25T03:19:40;96339.69;;;16.96;100.00
39141;BME280;24875;48.436;10.298;2022-08-25T03:22:07;96337.97;;;17.08;100.00
39141;BME280;24875;48.436;10.298;2022-08-25T03:24:34;96331.13;;;17.24;100.00
39141;BME280;24875;48.436;10.298;2022-08-25T03:27:01;96341.22;;;17.16;100.00
39141;BME280;24875;48.436;10.298;2022-08-25T03:29:30;96334.59;;;17.31;100.00
39141;BME280;24875;48.436;10.298;2022-08-25T03:31:58;96335.63;;;17.30;100.00
39141;BME280;24875;48.436;10.298;2022-08-25T03:34:27;96333.00;;;17.17;100.00
39141;BME280;24875;48.436;10.298;2022-08-25T03:36:55;96338.91;;;17.19;100.00
39141;BME280;24875;48.436;10.298;2022-08-25T03:39:23;96338.09;;;17.25;100.00
39141;BME280;24875;48.436;10.298;2022-08-25T03:41:51;96342.41;;;17.26;100.00
39141;BME280;24875;48.436;10.298;2022-08-25T03:44:19;96339.75;;;17.26;100.00
39141;BME280;24875;48.436;10.298;2022-08-25T03:46:48;96340.94;;;17.30;100.00
39141;BME280;24875;48.436;10.298;2022-08-25T03:49:21;96340.94;;;17.30;100.00
39141;BME280;24875;48.436;10.298;2022-08-25T03:51:51;96343.16;;;17.33;100.00
39141;BME280;24875;48.436;10.298;2022-08-25T03:54:22;96334.03;;;17.16;100.00
39141;BME280;24875;48.436;10.298;2022-08-25T03:56:49;96340.03;;;17.12;100.00
39141;BME280;24875;48.436;10.298;2022-08-25T03:59:16;96334.25;;;17.15;100.00
39141;BME280;24875;48.436;10.298;2022-08-25T04:01:44;96332.84;;;17.12;100.00
39141;BME280;24875;48.436;10.298;2022-08-25T04:04:12;96339.97;;;17.18;100.00
39141;BME280;24875;48.436;10.298;2022-08-25T04:06:40;96335.56;;;17.00;100.00
39141;BME280;24875;48.436;10.298;2022-08-25T04:09:08;96340.28;;;16.98;100.00
39141;BME280;24875;48.436;10.298;2022-08-25T04:11:36;96342.19;;;16.91;100.00
39141;BME280;24875;48.436;10.298;2022-08-25T04:14:03;96346.16;;;16.75;100.00
39141;BME280;24875;48.436;10.298;2022-08-25T04:16:31;96350.28;;;16.71;100.00
39141;BME280;24875;48.436;10.298;2022-08-25T04:19:00;96343.31;;;16.70;100.00
39141;BME280;24875;48.436;10.298;2022-08-25T04:21:27;96346.38;;;16.74;100.00
39141;BME280;24875;48.436;10.298;2022-08-25T04:23:54;96339.66;;;16.65;100.00
39141;BME280;24875;48.436;10.298;2022-08-25T04:26:24;96346.81;;;16.64;100.00
39141;BME280;24875;48.436;10.298;2022-08-25T04:28:53;96348.22;;;16.67;100.00
39141;BME280;24875;48.436;10.298;2022-08-25T04:31:20;96351.69;;;16.74;100.00
39141;BME280;24875;48.436;10.298;2022-08-25T04:33:47;96356.41;;;16.72;100.00
39141;BME280;24875;48.436;10.298;2022-08-25T04:36:15;96349.66;;;16.69;100.00
39141;BME280;24875;48.436;10.298;2022-08-25T04:38:43;96350.66;;;16.75;100.00
39141;BME280;24875;48.436;10.298;2022-08-25T04:41:12;96341.81;;;16.81;100.00
39141;BME280;24875;48.436;10.298;2022-08-25T04:43:40;96343.44;;;16.88;100.00
39141;BME280;24875;48.436;10.298;2022-08-25T04:46:10;96348.97;;;16.87;100.00
39141;BME280;24875;48.436;10.298;2022-08-25T04:48:38;96343.88;;;16.79;100.00
39141;BME280;24875;48.436;10.298;2022-08-25T04:51:05;96340.81;;;16.82;100.00
39141;BME280;24875;48.436;10.298;2022-08-25T04:53:32;96339.13;;;16.87;100.00
39141;BME280;24875;48.436;10.298;2022-08-25T04:55:59;96352.03;;;16.84;100.00
39141;BME280;24875;48.436;10.298;2022-08-25T04:58:26;96354.69;;;16.84;100.00
39141;BME280;24875;48.436;10.298;2022-08-25T05:01:00;96354.81;;;17.02;100.00
39141;BME280;24875;48.436;10.298;2022-08-25T05:03:28;96350.91;;;17.04;100.00
39141;BME280;24875;48.436;10.298;2022-08-25T05:05:55;96341.13;;;16.98;100.00
39141;BME280;24875;48.436;10.298;2022-08-25T05:08:21;96345.97;;;17.08;100.00
39141;BME280;24875;48.436;10.298;2022-08-25T05:10:48;96352.84;;;17.21;100.00
39141;BME280;24875;48.436;10.298;2022-08-25T05:13:17;96356.41;;;17.09;100.00
39141;BME280;24875;48.436;10.298;2022-08-25T05:15:50;96351.00;;;17.22;100.00
39141;BME280;24875;48.436;10.298;2022-08-25T05:18:18;96353.06;;;17.26;100.00
39141;BME280;24875;48.436;10.298;2022-08-25T05:20:46;96347.50;;;17.28;100.00
39141;BME280;24875;48.436;10.298;2022-08-25T05:23:13;96350.41;;;17.26;100.00
39141;BME280;24875;48.436;10.298;2022-08-25T05:25:39;96348.31;;;17.28;100.00
39141;BME280;24875;48.436;10.298;2022-08-25T05:28:07;96353.63;;;17.28;100.00
39141;BME280;24875;48.436;10.298;2022-08-25T05:30:36;96349.38;;;17.52;100.00
39141;BME280;24875;48.436;10.298;2022-08-25T05:33:03;96360.28;;;17.50;100.00
39141;BME280;24875;48.436;10.298;2022-08-25T05:35:30;96348.50;;;17.58;100.00
39141;BME280;24875;48.436;10.298;2022-08-25T05:37:58;96343.44;;;17.74;100.00
39141;BME280;24875;48.436;10.298;2022-08-25T05:40:25;96344.06;;;17.76;100.00
39141;BME280;24875;48.436;10.298;2022-08-25T05:42:52;96344.59;;;17.84;100.00
39141;BME280;24875;48.436;10.298;2022-08-25T05:45:19;96333.06;;;17.90;100.00
39141;BME280;24875;48.436;10.298;2022-08-25T05:47:46;96334.63;;;17.98;100.00
39141;BME280;24875;48.436;10.298;2022-08-25T05:50:13;96329.59;;;18.08;100.00
39141;BME280;24875;48.436;10.298;2022-08-25T05:52:40;96327.09;;;18.13;100.00
39141;BME280;24875;48.436;10.298;2022-08-25T05:55:09;96333.56;;;18.41;100.00
39141;BME280;24875;48.436;10.298;2022-08-25T05:57:36;96326.97;;;18.43;100.00
39141;BME280;24875;48.436;10.298;2022-08-25T06:00:03;96318.81;;;18.56;100.00
39141;BME280;24875;48.436;10.298;2022-08-25T06:02:31;96315.69;;;18.59;100.00
39141;BME280;24875;48.436;10.298;2022-08-25T06:05:06;96318.66;;;18.69;100.00
39141;BME280;24875;48.436;10.298;2022-08-25T06:07:33;96323.00;;;18.82;100.00
39141;BME280;24875;48.436;10.298;2022-08-25T06:10:00;96318.63;;;18.87;100.00
39141;BME280;24875;48.436;10.298;2022-08-25T06:12:28;96320.38;;;18.93;100.00
39141;BME280;24875;48.436;10.298;2022-08-25T06:14:56;96324.94;;;19.04;100.00
39141;BME280;24875;48.436;10.298;2022-08-25T06:17:23;96324.31;;;19.08;100.00
39141;BME280;24875;48.436;10.298;2022-08-25T06:19:49;96324.94;;;19.22;100.00
39141;BME280;24875;48.436;10.298;2022-08-25T06:22:16;96321.84;;;19.36;100.00
39141;BME280;24875;48.436;10.298;2022-08-25T06:24:42;96316.84;;;19.40;100.00
39141;BME280;24875;48.436;10.298;2022-08-25T06:27:09;96321.75;;;19.43;100.00
39141;BME280;24875;48.436;10.298;2022-08-25T06:29:37;96316.31;;;19.60;100.00
39141;BME280;24875;48.436;10.298;2022-08-25T06:32:04;96316.44;;;19.65;100.00
39141;BME280;24875;48.436;10.298;2022-08-25T06:34:31;96316.09;;;19.73;100.00
39141;BME280;24875;48.436;10.298;2022-08-25T06:36:58;96311.31;;;19.75;100.00
39141;BME280;24875;48.436;10.298;2022-08-25T06:39:24;96307.81;;;19.63;100.00
39141;BME280;24875;48.436;10.298;2022-08-25T06:41:52;96314.22;;;19.74;100.00
39141;BME280;24875;48.436;10.298;2022-08-25T06:44:19;96311.31;;;19.75;100.00
39141;BME280;24875;48.436;10.298;2022-08-25T06:46:47;96315.41;;;20.01;100.00
39141;BME280;24875;48.436;10.298;2022-08-25T06:49:14;96309.22;;;19.77;100.00
39141;BME280;24875;48.436;10.298;2022-08-25T06:51:41;96303.66;;;19.90;100.00
39141;BME280;24875;48.436;10.298;2022-08-25T06:54:08;96301.72;;;20.09;100.00
39141;BME280;24875;48.436;10.298;2022-08-25T06:56:35;96300.19;;;20.13;100.00
39141;BME280;24875;48.436;10.298;2022-08-25T06:59:03;96299.47;;;20.17;100.00
39141;BME280;24875;48.436;10.298;2022-08-25T07:01:30;96303.00;;;20.18;100.00
39141;BME280;24875;48.436;10.298;2022-08-25T07:04:00;96297.03;;;20.27;100.00
39141;BME280;24875;48.436;10.298;2022-08-25T07:06:28;96299.00;;;20.31;100.00
39141;BME280;24875;48.436;10.298;2022-08-25T07:08:56;96305.72;;;20.34;100.00
39141;BME280;24875;48.436;10.298;2022-08-25T07:11:22;96299.06;;;20.48;100.00
39141;BME280;24875;48.436;10.298;2022-08-25T07:13:49;96300.72;;;20.49;100.00
39141;BME280;24875;48.436;10.298;2022-08-25T07:16:17;96304.16;;;20.61;100.00
39141;BME280;24875;48.436;10.298;2022-08-25T07:18:45;96308.22;;;20.75;100.00
39141;BME280;24875;48.436;10.298;2022-08-25T07:21:14;96305.06;;;20.89;100.00
39141;BME280;24875;48.436;10.298;2022-08-25T07:23:40;96304.41;;;20.98;100.00
39141;BME280;24875;48.436;10.298;2022-08-25T07:26:08;96302.22;;;21.23;100.00
39141;BME280;24875;48.436;10.298;2022-08-25T07:28:35;96305.16;;;21.38;98.69
39141;BME280;24875;48.436;10.298;2022-08-25T07:31:02;96309.53;;;21.55;99.62
39141;BME280;24875;48.436;10.298;2022-08-25T07:33:29;96307.31;;;21.69;96.81
39141;BME280;24875;48.436;10.298;2022-08-25T07:35:56;96309.69;;;21.82;95.60
39141;BME280;24875;48.436;10.298;2022-08-25T07:38:23;96301.59;;;21.98;95.86
39141;BME280;24875;48.436;10.298;2022-08-25T07:40:50;96296.56;;;22.02;94.85
39141;BME280;24875;48.436;10.298;2022-08-25T07:43:20;96300.63;;;22.04;95.50
39141;BME280;24875;48.436;10.298;2022-08-25T07:45:47;96298.34;;;22.12;94.37
39141;BME280;24875;48.436;10.298;2022-08-25T07:48:14;96300.88;;;22.19;92.87
39141;BME280;24875;48.436;10.298;2022-08-25T07:50:45;96298.25;;;22.24;93.24
39141;BME280;24875;48.436;10.298;2022-08-25T07:53:13;96302.47;;;22.36;92.48
39141;BME280;24875;48.436;10.298;2022-08-25T07:55:42;96294.41;;;22.36;92.16
39141;BME280;24875;48.436;10.298;2022-08-25T07:58:09;96301.34;;;22.32;91.86
39141;BME280;24875;48.436;10.298;2022-08-25T08:00:36;96289.44;;;22.45;91.16
39141;BME280;24875;48.436;10.298;2022-08-25T08:03:04;96301.56;;;22.47;92.18
39141;BME280;24875;48.436;10.298;2022-08-25T08:05:32;96298.25;;;22.40;89.83
39141;BME280;24875;48.436;10.298;2022-08-25T08:07:59;96294.06;;;22.49;90.38
39141;BME280;24875;48.436;10.298;2022-08-25T08:10:26;96292.44;;;22.48;93.42
39141;BME280;24875;48.436;10.298;2022-08-25T08:12:54;96291.69;;;22.53;91.70
39141;BME280;24875;48.436;10.298;2022-08-25T08:15:21;96294.44;;;22.58;90.03
39141;BME280;24875;48.436;10.298;2022-08-25T08:17:47;96296.56;;;22.56;90.71
39141;BME280;24875;48.436;10.298;2022-08-25T08:20:14;96301.50;;;22.64;89.84
39141;BME280;24875;48.436;10.298;2022-08-25T08:22:42;96296.56;;;22.77;89.58
39141;BME280;24875;48.436;10.298;2022-08-25T08:25:10;96297.75;;;23.07;88.14
39141;BME280;24875;48.436;10.298;2022-08-25T08:27:36;96308.19;;;23.04;90.69
39141;BME280;24875;48.436;10.298;2022-08-25T08:30:05;96294.59;;;23.15;89.15
39141;BME280;24875;48.436;10.298;2022-08-25T08:32:32;96303.88;;;23.29;90.01
39141;BME280;24875;48.436;10.298;2022-08-25T08:34:59;96290.84;;;23.42;91.12
39141;BME280;24875;48.436;10.298;2022-08-25T08:37:25;96295.16;;;23.43;86.42
39141;BME280;24875;48.436;10.298;2022-08-25T08:39:52;96295.44;;;23.47;87.46
39141;BME280;24875;48.436;10.298;2022-08-25T08:42:31;96302.28;;;23.86;86.62
39141;BME280;24875;48.436;10.298;2022-08-25T08:45:19;96298.72;;;23.80;86.23
39141;BME280;24875;48.436;10.298;2022-08-25T08:47:55;96299.47;;;23.71;88.56
39141;BME280;24875;48.436;10.298;2022-08-25T08:50:32;96291.88;;;23.99;88.39
39141;BME280;24875;48.436;10.298;2022-08-25T08:53:04;96286.72;;;23.92;84.85
39141;BME280;24875;48.436;10.298;2022-08-25T08:55:35;96292.94;;;23.93;87.52
39141;BME280;24875;48.436;10.298;2022-08-25T08:58:05;96288.78;;;24.17;87.04
39141;BME280;24875;48.436;10.298;2022-08-25T09:00:41;96282.91;;;24.30;85.22
39141;BME280;24875;48.436;10.298;2022-08-25T09:03:11;96280.25;;;24.35;84.71
39141;BME280;24875;48.436;10.298;2022-08-25T09:05:45;96273.13;;;24.55;81.17
39141;BME280;24875;48.436;10.298;2022-08-25T09:08:13;96280.13;;;24.51;83.93
39141;BME280;24875;48.436;10.298;2022-08-25T09:10:50;96280.13;;;24.51;81.65
39141;BME280;24875;48.436;10.298;2022-08-25T09:13:29;96279.81;;;24.48;82.38
39141;BME280;24875;48.436;10.298;2022-08-25T09:16:05;96277.06;;;24.38;83.45
39141;BME280;24875;48.436;10.298;2022-08-25T09:18:58;96272.31;;;24.50;80.14
39141;BME280;24875;48.436;10.298;2022-08-25T09:21:33;96276.72;;;24.75;80.69
39141;BME280;24875;48.436;10.298;2022-08-25T09:24:16;96270.53;;;24.75;78.76
39141;BME280;24875;48.436;10.298;2022-08-25T09:26:57;96267.38;;;25.03;77.49
39141;BME280;24875;48.436;10.298;2022-08-25T09:29:47;96267.44;;;25.08;76.28
39141;BME280;24875;48.436;10.298;2022-08-25T09:32:20;96263.41;;;25.20;76.33
39141;BME280;24875;48.436;10.298;2022-08-25T09:34:48;96260.44;;;25.17;78.73
39141;BME280;24875;48.436;10.298;2022-08-25T09:37:16;96259.84;;;25.05;75.16
39141;BME280;24875;48.436;10.298;2022-08-25T09:39:42;96254.50;;;25.15;75.71
39141;BME280;24875;48.436;10.298;2022-08-25T09:42:09;96251.53;;;25.16;81.27
39141;BME280;24875;48.436;10.298;2022-08-25T09:44:39;96249.91;;;25.25;77.51
39141;BME280;24875;48.436;10.298;2022-08-25T09:47:18;96239.13;;;25.20;77.64
39141;BME280;24875;48.436;10.298;2022-08-25T09:49:49;96245.06;;;25.22;75.62
39141;BME280;24875;48.436;10.298;2022-08-25T09:52:39;96235.91;;;25.43;73.96
39141;BME280;24875;48.436;10.298;2022-08-25T09:55:30;96234.00;;;26.03;72.62
39141;BME280;24875;48.436;10.298;2022-08-25T09:57:58;96234.00;;;26.13;71.66
39141;BME280;24875;48.436;10.298;2022-08-25T10:00:28;96237.53;;;25.98;74.00
39141;BME280;24875;48.436;10.298;2022-08-25T10:03:04;96230.97;;;26.44;73.27
39141;BME280;24875;48.436;10.298;2022-08-25T10:05:34;96233.78;;;25.94;72.60
39141;BME280;24875;48.436;10.298;2022-08-25T10:08:10;96226.75;;;25.79;72.29
39141;BME280;24875;48.436;10.298;2022-08-25T10:10:42;96231.34;;;25.93;73.25
39141;BME280;24875;48.436;10.298;2022-08-25T10:13:13;96229.22;;;25.70;72.60
39141;BME280;24875;48.436;10.298;2022-08-25T10:15:40;96222.94;;;25.70;75.89
39141;BME280;24875;48.436;10.298;2022-08-25T10:18:21;96222.97;;;25.84;71.79
39141;BME280;24875;48.436;10.298;2022-08-25T10:21:03;96216.75;;;25.94;74.44
39141;BME280;24875;48.436;10.298;2022-08-25T10:23:31;96211.59;;;26.12;73.11
39141;BME280;24875;48.436;10.298;2022-08-25T10:26:00;96218.06;;;26.06;72.90
39141;BME280;24875;48.436;10.298;2022-08-25T10:28:32;96201.84;;;26.16;73.07
39141;BME280;24875;48.436;10.298;2022-08-25T10:31:06;96208.88;;;26.22;71.40
39141;BME280;24875;48.436;10.298;2022-08-25T10:33:46;96207.00;;;26.08;72.73
39141;BME280;24875;48.436;10.298;2022-08-25T10:36:20;96203.22;;;26.14;70.24
39141;BME280;24875;48.436;10.298;2022-08-25T10:38:51;96201.47;;;26.52;68.29
39141;BME280;24875;48.436;10.298;2022-08-25T10:41:29;96198.22;;;27.08;65.89
39141;BME280;24875;48.436;10.298;2022-08-25T10:44:09;96193.53;;;26.81;69.24
39141;BME280;24875;48.436;10.298;2022-08-25T10:46:58;96189.25;;;26.70;68.95
39141;BME280;24875;48.436;10.298;2022-08-25T10:49:36;96190.84;;;26.76;69.49
39141;BME280;24875;48.436;10.298;2022-08-25T10:52:13;96185.31;;;27.34;69.16
39141;BME280;24875;48.436;10.298;2022-08-25T10:54:46;96181.28;;;27.31;68.71
39141;BME280;24875;48.436;10.298;2022-08-25T10:57:21;96182.25;;;27.12;63.96
39141;BME280;24875;48.436;10.298;2022-08-25T10:59:54;96180.16;;;26.94;66.67
39141;BME280;24875;48.436;10.298;2022-08-25T11:02:52;96170.81;;;27.58;66.86
39141;BME280;24875;48.436;10.298;2022-08-25T11:05:26;96174.28;;;27.30;68.34
39141;BME280;24875;48.436;10.298;2022-08-25T11:08:00;96179.59;;;27.40;66.43
39141;BME280;24875;48.436;10.298;2022-08-25T11:10:37;96179.91;;;26.91;64.20
39141;BME280;24875;48.436;10.298;2022-08-25T11:13:10;96166.66;;;26.99;66.15
39141;BME280;24875;48.436;10.298;2022-08-25T11:15:51;96179.75;;;27.20;66.35
39141;BME280;24875;48.436;10.298;2022-08-25T11:18:19;96174.28;;;27.30;65.77
39141;BME280;24875;48.436;10.298;2022-08-25T11:20:53;96177.56;;;27.22;61.98
39141;BME280;24875;48.436;10.298;2022-08-25T11:23:26;96163.81;;;27.57;64.58
39141;BME280;24875;48.436;10.298;2022-08-25T11:25:58;96174.22;;;27.35;65.41
39141;BME280;24875;48.436;10.298;2022-08-25T11:28:31;96172.63;;;27.34;67.67
39141;BME280;24875;48.436;10.298;2022-08-25T11:31:01;96169.81;;;27.44;64.14
39141;BME280;24875;48.436;10.298;2022-08-25T11:33:29;96169.44;;;27.61;63.66
39141;BME280;24875;48.436;10.298;2022-08-25T11:35:58;96175.78;;;28.03;64.08
39141;BME280;24875;48.436;10.298;2022-08-25T11:38:39;96171.34;;;28.12;66.26
39141;BME280;24875;48.436;10.298;2022-08-25T11:41:19;96171.47;;;28.30;59.45
39141;BME280;24875;48.436;10.298;2022-08-25T11:44:00;96171.25;;;28.68;62.14
39141;BME280;24875;48.436;10.298;2022-08-25T11:46:42;96167.59;;;28.08;62.01
39141;BME280;24875;48.436;10.298;2022-08-25T11:49:26;96167.19;;;27.96;61.78
39141;BME280;24875;48.436;10.298;2022-08-25T11:51:57;96167.59;;;27.84;63.71
39141;BME280;24875;48.436;10.298;2022-08-25T11:54:27;96157.00;;;27.88;61.49
39141;BME280;24875;48.436;10.298;2022-08-25T11:56:59;96160.25;;;27.85;62.00
39141;BME280;24875;48.436;10.298;2022-08-25T12:00:09;96160.66;;;27.40;61.79
39141;BME280;24875;48.436;10.298;2022-08-25T12:02:40;96163.25;;;27.22;60.57
39141;BME280;24875;48.436;10.298;2022-08-25T12:05:10;96149.19;;;27.15;64.58
39141;BME280;24875;48.436;10.298;2022-08-25T12:07:59;96155.03;;;26.99;62.93
39141;BME280;24875;48.436;10.298;2022-08-25T12:10:59;96149.06;;;26.92;61.80
39141;BME280;24875;48.436;10.298;2022-08-25T12:13:39;96151.28;;;26.90;60.47
39141;BME280;24875;48.436;10.298;2022-08-25T12:16:08;96148.59;;;27.28;59.45
39141;BME280;24875;48.436;10.298;2022-08-25T12:19:26;96155.75;;;27.42;57.84
39141;BME280;24875;48.436;10.298;2022-08-25T12:21:55;96151.72;;;27.73;58.21
39141;BME280;24875;48.436;10.298;2022-08-25T12:24:45;96151.16;;;28.28;58.90
39141;BME280;24875;48.436;10.298;2022-08-25T12:27:21;96147.47;;;28.19;57.55
39141;BME280;24875;48.436;10.298;2022-08-25T12:29:53;96137.09;;;27.97;57.47
39141;BME280;24875;48.436;10.298;2022-08-25T12:32:34;96141.25;;;27.90;56.30
39141;BME280;24875;48.436;10.298;2022-08-25T12:35:26;96137.44;;;27.91;56.90
39141;BME280;24875;48.436;10.298;2022-08-25T12:38:03;96145.16;;;27.79;56.45
39141;BME280;24875;48.436;10.298;2022-08-25T12:40:34;96140.38;;;28.23;57.95
39141;BME280;24875;48.436;10.298;2022-08-25T12:43:08;96142.44;;;28.54;59.17
39141;BME280;24875;48.436;10.298;2022-08-25T12:45:39;96141.31;;;28.55;56.93
39141;BME280;24875;48.436;10.298;2022-08-25T12:48:38;96135.59;;;28.56;54.95
39141;BME280;24875;48.436;10.298;2022-08-25T12:51:08;96137.22;;;28.81;53.69
39141;BME280;24875;48.436;10.298;2022-08-25T12:53:38;96136.72;;;28.32;55.01
39141;BME280;24875;48.436;10.298;2022-08-25T12:56:07;96129.66;;;28.73;60.36
39141;BME280;24875;48.436;10.298;2022-08-25T12:58:47;96126.28;;;28.62;57.06
39141;BME280;24875;48.436;10.298;2022-08-25T13:01:20;96122.44;;;28.27;56.52
39141;BME280;24875;48.436;10.298;2022-08-25T13:04:12;96126.28;;;27.97;57.24